Time;durP1;ratioP1;P1;durP2;ratioP2;P2;SDS_P1;SDS_P2;PMS_P1;PMS_P2;Temp;Humidity;BMP_temperature;BMP_pressure;BME280_temperature;BME280_humidity;BME280_pressure;Samples;Min_cycle;Max_cycle;Signal;HPM_P1;HPM_P2
2023/07/04 00:02:07;;;;;;;7.33;4.83;;;19.00;1.00;;;;;;5015356;28;20440;-78
2023/07/04 00:04:34;;;;;;;7.50;5.00;;;18.90;1.00;;;;;;5024831;28;20461;-78
2023/07/04 00:07:03;;;;;;;5.10;4.63;;;18.80;1.00;;;;;;5036307;28;20470;-80
2023/07/04 00:09:30;;;;;;;7.63;5.10;;;18.80;1.00;;;;;;5032290;28;20989;-78
2023/07/04 00:11:59;;;;;;;5.80;5.00;;;18.80;1.00;;;;;;5031306;28;21917;-79
2023/07/04 00:14:27;;;;;;;7.87;4.53;;;18.80;1.00;;;;;;5035362;28;20475;-78
2023/07/04 00:16:54;;;;;;;5.93;4.63;;;18.70;1.00;;;;;;5034439;28;20657;-78
2023/07/04 00:19:21;;;;;;;7.63;4.87;;;18.70;1.00;;;;;;5034531;28;20515;-78
2023/07/04 00:21:48;;;;;;;8.37;5.27;;;18.70;1.00;;;;;;5033733;28;20564;-78
2023/07/04 00:24:17;;;;;;;6.27;4.27;;;18.80;1.00;;;;;;5025665;28;20514;-77
2023/07/04 00:26:47;;;;;;;9.43;5.40;;;18.80;1.00;;;;;;5013322;28;21986;-77
2023/07/04 00:29:15;;;;;;;7.10;5.10;;;18.70;1.00;;;;;;5010698;28;20731;-77
2023/07/04 00:31:43;;;;;;;5.70;4.57;;;18.70;1.00;;;;;;5019427;28;21560;-77
2023/07/04 00:34:10;;;;;;;6.60;4.93;;;18.60;1.00;;;;;;5032743;28;20478;-77
2023/07/04 00:36:39;;;;;;;4.70;4.30;;;18.60;1.00;;;;;;5031127;28;20487;-77
2023/07/04 00:39:07;;;;;;;6.20;4.50;;;18.60;1.00;;;;;;5034337;28;21004;-76
2023/07/04 00:41:35;;;;;;;12.63;5.30;;;18.60;1.00;;;;;;5035099;28;20460;-78
2023/07/04 00:44:09;;;;;;;10.40;4.67;;;18.60;1.00;;;;;;5033975;28;20424;-77
2023/07/04 00:46:39;;;;;;;7.17;4.57;;;18.70;1.00;;;;;;5032776;28;20993;-77
2023/07/04 00:49:18;;;;;;;7.07;5.03;;;18.60;1.00;;;;;;5033512;28;20553;-76
2023/07/04 00:51:50;;;;;;;9.80;5.27;;;18.60;1.00;;;;;;5033702;28;20945;-78
2023/07/04 00:54:19;;;;;;;9.23;4.60;;;18.60;1.00;;;;;;5030327;28;20467;-78
2023/07/04 00:56:46;;;;;;;5.93;4.90;;;18.60;1.00;;;;;;5033258;28;20494;-77
2023/07/04 00:59:13;;;;;;;11.20;5.47;;;18.60;1.00;;;;;;5033524;28;20545;-76
2023/07/04 01:01:43;;;;;;;6.67;4.80;;;18.60;1.00;;;;;;5033030;28;20474;-77
2023/07/04 01:04:13;;;;;;;11.03;4.90;;;18.60;1.00;;;;;;5039780;22;20452;-70
2023/07/04 01:06:47;;;;;;;9.47;5.17;;;18.60;1.00;;;;;;5027270;28;21048;-70
2023/07/04 01:09:17;;;;;;;7.10;5.10;;;18.60;1.00;;;;;;5023301;28;20546;-70
2023/07/04 01:11:46;;;;;;;6.23;4.70;;;18.60;1.00;;;;;;5024586;28;20434;-70
2023/07/04 01:14:24;;;;;;;7.20;4.10;;;18.60;1.00;;;;;;5026527;28;20512;-70
2023/07/04 01:16:51;;;;;;;9.07;4.93;;;18.60;1.00;;;;;;5025171;28;20467;-70
2023/07/04 01:19:27;;;;;;;6.17;5.00;;;18.60;1.00;;;;;;5021196;28;20478;-69
2023/07/04 01:22:07;;;;;;;8.83;5.70;;;18.60;1.00;;;;;;5023148;28;20523;-70
2023/07/04 01:24:44;;;;;;;8.30;4.40;;;18.60;1.00;;;;;;5026292;28;20487;-69
2023/07/04 01:27:15;;;;;;;6.80;4.73;;;18.70;1.00;;;;;;5022395;28;20487;-70
2023/07/04 01:29:43;;;;;;;6.77;4.90;;;18.60;1.00;;;;;;5022661;28;20543;-69
2023/07/04 01:32:10;;;;;;;6.57;4.23;;;18.70;1.00;;;;;;5029589;28;20505;-72
2023/07/04 01:34:39;;;;;;;7.13;5.23;;;18.70;1.00;;;;;;5022993;28;20891;-70
2023/07/04 01:37:07;;;;;;;9.30;5.00;;;18.70;1.00;;;;;;5023878;28;20502;-70
2023/07/04 01:39:34;;;;;;;4.77;4.10;;;18.70;1.00;;;;;;5023770;28;20547;-70
2023/07/04 01:42:04;;;;;;;8.77;5.30;;;18.70;1.00;;;;;;5023662;28;20547;-70
2023/07/04 01:44:33;;;;;;;8.80;5.73;;;18.70;1.00;;;;;;5022655;28;20456;-69
2023/07/04 01:47:02;;;;;;;4.97;4.20;;;18.80;1.00;;;;;;5025308;28;20509;-69
2023/07/04 01:49:29;;;;;;;7.87;4.47;;;18.80;1.00;;;;;;5025623;28;20508;-69
2023/07/04 01:51:57;;;;;;;7.50;4.80;;;18.90;1.00;;;;;;5021792;28;20790;-69
2023/07/04 01:54:24;;;;;;;9.37;4.40;;;19.00;1.00;;;;;;5021319;28;20557;-70
2023/07/04 01:56:52;;;;;;;7.30;5.33;;;18.90;1.00;;;;;;5024161;28;20493;-69
2023/07/04 01:59:23;;;;;;;7.13;5.20;;;19.00;1.00;;;;;;5026004;28;20457;-69
2023/07/04 02:01:51;;;;;;;8.77;4.93;;;18.90;1.00;;;;;;5019574;28;20499;-69
2023/07/04 02:04:18;;;;;;;11.27;5.00;;;18.90;1.00;;;;;;5023650;28;20466;-71
2023/07/04 02:06:45;;;;;;;9.40;4.90;;;18.90;1.00;;;;;;5021963;28;20482;-70
2023/07/04 02:09:12;;;;;;;6.63;5.00;;;18.90;1.00;;;;;;5022456;28;20468;-69
2023/07/04 02:11:40;;;;;;;9.10;5.53;;;18.90;1.00;;;;;;5026795;28;20463;-71
2023/07/04 02:14:10;;;;;;;5.37;4.17;;;18.90;1.00;;;;;;5022201;28;21277;-70
2023/07/04 02:16:37;;;;;;;8.23;4.57;;;18.90;1.00;;;;;;5023195;28;20962;-70
2023/07/04 02:19:05;;;;;;;6.57;4.73;;;18.90;1.00;;;;;;5027566;28;20439;-71
2023/07/04 02:21:34;;;;;;;8.17;5.00;;;18.90;1.00;;;;;;5022197;28;20448;-70
2023/07/04 02:24:01;;;;;;;8.23;4.73;;;18.80;1.00;;;;;;5023765;28;20471;-70
2023/07/04 02:26:29;;;;;;;7.20;4.83;;;18.80;1.00;;;;;;5024227;28;22062;-70
2023/07/04 02:28:57;;;;;;;6.63;4.70;;;18.80;1.00;;;;;;5025842;28;20901;-69
2023/07/04 02:31:26;;;;;;;6.53;4.37;;;18.80;1.00;;;;;;5018550;28;20467;-71
2023/07/04 02:33:54;;;;;;;12.40;5.10;;;18.80;1.00;;;;;;5024838;28;20476;-71
2023/07/04 02:36:22;;;;;;;7.63;4.97;;;18.80;1.00;;;;;;5016001;28;20473;-70
2023/07/04 02:38:49;;;;;;;7.43;4.77;;;18.80;1.00;;;;;;5018913;28;20460;-71
2023/07/04 02:41:16;;;;;;;5.70;5.20;;;18.80;1.00;;;;;;5021139;28;20597;-70
2023/07/04 02:43:44;;;;;;;5.93;4.50;;;18.70;1.00;;;;;;5021219;28;20549;-70
2023/07/04 02:46:11;;;;;;;6.07;4.70;;;18.60;1.00;;;;;;5022483;28;20474;-70
2023/07/04 02:48:38;;;;;;;7.83;4.57;;;18.60;1.00;;;;;;5023312;28;20459;-70
2023/07/04 02:51:05;;;;;;;7.23;5.60;;;18.70;1.00;;;;;;5023740;28;20496;-70
2023/07/04 02:53:33;;;;;;;7.37;5.00;;;18.70;1.00;;;;;;5020267;28;20447;-71
2023/07/04 02:56:01;;;;;;;9.40;5.20;;;18.70;1.00;;;;;;5021008;28;20569;-70
2023/07/04 02:58:28;;;;;;;8.17;4.63;;;18.70;1.00;;;;;;5022824;28;20455;-71
2023/07/04 03:00:55;;;;;;;6.77;5.20;;;18.70;1.00;;;;;;5023931;28;20462;-71
2023/07/04 03:03:23;;;;;;;8.27;4.80;;;18.70;1.00;;;;;;5020361;28;20461;-70
2023/07/04 03:05:50;;;;;;;8.17;5.30;;;18.70;1.00;;;;;;5019807;28;20483;-71
2023/07/04 03:08:17;;;;;;;9.43;5.60;;;18.70;1.00;;;;;;5021695;28;20907;-72
2023/07/04 03:10:47;;;;;;;8.83;5.67;;;18.80;1.00;;;;;;5022631;28;21953;-70
2023/07/04 03:13:15;;;;;;;11.87;5.20;;;18.70;1.00;;;;;;5016742;28;20548;-71
2023/07/04 03:15:42;;;;;;;9.13;5.93;;;18.80;1.00;;;;;;5023346;28;20573;-70
2023/07/04 03:18:09;;;;;;;5.97;5.37;;;18.70;1.00;;;;;;5022704;28;20970;-71
2023/07/04 03:20:36;;;;;;;6.17;4.90;;;18.80;1.00;;;;;;5022855;28;20587;-70
2023/07/04 03:23:04;;;;;;;7.90;5.67;;;18.80;1.00;;;;;;5021165;28;20502;-76
2023/07/04 03:25:31;;;;;;;8.37;5.90;;;18.80;1.00;;;;;;5023089;28;20468;-72
2023/07/04 03:28:00;;;;;;;9.00;5.50;;;18.80;1.00;;;;;;5022036;28;20522;-71
2023/07/04 03:30:27;;;;;;;10.00;4.93;;;18.80;1.00;;;;;;5019313;28;20845;-70
2023/07/04 03:32:54;;;;;;;9.73;5.73;;;18.80;1.00;;;;;;5027008;28;20483;-70
2023/07/04 03:35:21;;;;;;;7.93;4.90;;;18.70;1.00;;;;;;5023437;28;20488;-69
2023/07/04 03:37:48;;;;;;;9.07;5.47;;;18.70;1.00;;;;;;5023869;28;20463;-69
2023/07/04 03:40:15;;;;;;;5.90;5.30;;;18.70;1.00;;;;;;5021741;28;20479;-72
2023/07/04 03:42:42;;;;;;;8.90;4.97;;;18.70;1.00;;;;;;5027229;28;20897;-69
2023/07/04 03:45:11;;;;;;;6.93;5.90;;;18.70;1.00;;;;;;5023643;28;20478;-71
2023/07/04 03:47:41;;;;;;;9.23;5.97;;;18.60;1.00;;;;;;5021858;28;20619;-71
2023/07/04 03:50:13;;;;;;;6.00;4.83;;;18.60;1.00;;;;;;5025527;28;20492;-70
2023/07/04 03:52:40;;;;;;;9.67;5.73;;;18.50;1.00;;;;;;5025273;28;20918;-71
2023/07/04 03:55:08;;;;;;;7.30;5.37;;;18.40;1.00;;;;;;5024802;28;20532;-73
2023/07/04 03:57:35;;;;;;;7.10;5.40;;;18.30;1.00;;;;;;5023314;28;20457;-70
2023/07/04 04:00:05;;;;;;;10.07;5.63;;;18.30;1.00;;;;;;5023734;28;20539;-70
2023/07/04 04:02:34;;;;;;;8.47;5.10;;;18.30;1.00;;;;;;5023487;28;20455;-70
2023/07/04 04:05:01;;;;;;;8.33;5.40;;;18.30;1.00;;;;;;5019975;28;20439;-74
2023/07/04 04:07:28;;;;;;;7.13;5.33;;;18.20;1.00;;;;;;5024784;28;20540;-73
2023/07/04 04:09:55;;;;;;;7.60;5.20;;;18.30;1.00;;;;;;5022127;28;20942;-70
2023/07/04 04:12:21;;;;;;;8.03;6.20;;;18.20;1.00;;;;;;5022067;28;20559;-70
2023/07/04 04:14:50;;;;;;;7.10;4.63;;;18.20;1.00;;;;;;5025949;28;20474;-69
2023/07/04 04:17:17;;;;;;;10.47;5.50;;;18.30;1.00;;;;;;5019106;28;20461;-69
2023/07/04 04:19:45;;;;;;;6.63;5.10;;;18.30;1.00;;;;;;5022546;28;20958;-70
2023/07/04 04:22:12;;;;;;;8.77;6.33;;;18.30;1.00;;;;;;5023725;28;20467;-69
2023/07/04 04:24:40;;;;;;;9.80;5.93;;;18.30;1.00;;;;;;5025039;28;20597;-71
2023/07/04 04:27:11;;;;;;;9.57;5.60;;;18.30;1.00;;;;;;5026258;28;20455;-73
2023/07/04 04:29:38;;;;;;;9.57;5.57;;;18.30;1.00;;;;;;5023925;28;20962;-71
2023/07/04 04:32:05;;;;;;;6.67;5.17;;;18.30;1.00;;;;;;5024439;28;20553;-74
2023/07/04 04:34:32;;;;;;;8.87;5.87;;;18.30;1.00;;;;;;5021842;28;20521;-68
2023/07/04 04:37:01;;;;;;;7.03;5.73;;;18.30;1.00;;;;;;5023440;28;20558;-70
2023/07/04 04:39:28;;;;;;;5.63;5.10;;;18.30;1.00;;;;;;5019862;28;20459;-72
2023/07/04 04:41:55;;;;;;;9.80;5.00;;;18.30;1.00;;;;;;5025601;28;20467;-72
2023/07/04 04:44:22;;;;;;;8.77;6.07;;;18.40;1.00;;;;;;5024142;28;20477;-71
2023/07/04 04:46:50;;;;;;;8.97;6.30;;;18.30;1.00;;;;;;5025615;28;20554;-70
2023/07/04 04:49:18;;;;;;;8.73;5.50;;;18.30;1.00;;;;;;5025735;28;20493;-69
2023/07/04 04:51:45;;;;;;;6.57;5.87;;;18.30;1.00;;;;;;5022388;28;20463;-70
2023/07/04 04:54:15;;;;;;;8.60;5.60;;;18.40;1.00;;;;;;5024133;28;20679;-69
2023/07/04 04:56:44;;;;;;;9.17;6.00;;;18.40;1.00;;;;;;5023283;28;20947;-69
2023/07/04 04:59:11;;;;;;;9.27;6.10;;;18.40;1.00;;;;;;5020970;28;20462;-71
2023/07/04 05:01:39;;;;;;;7.90;6.47;;;18.30;1.00;;;;;;5022960;28;20548;-72
2023/07/04 05:04:06;;;;;;;10.47;6.20;;;18.40;1.00;;;;;;5025503;28;20562;-70
2023/07/04 05:06:33;;;;;;;6.47;5.30;;;18.40;1.00;;;;;;5025420;28;20849;-70
2023/07/04 05:09:00;;;;;;;8.77;5.50;;;18.40;1.00;;;;;;5020652;28;20526;-71
2023/07/04 05:11:31;;;;;;;5.93;5.10;;;18.60;1.00;;;;;;5020998;28;20516;-70
2023/07/04 05:14:02;;;;;;;11.43;5.57;;;18.80;1.00;;;;;;5023715;28;20605;-71
2023/07/04 05:16:29;;;;;;;8.33;5.03;;;19.10;1.00;;;;;;5018334;28;20447;-71
2023/07/04 05:18:56;;;;;;;12.10;5.87;;;19.20;1.00;;;;;;5017890;28;20901;-71
2023/07/04 05:21:24;;;;;;;11.07;4.93;;;19.30;1.00;;;;;;5019287;28;20495;-70
2023/07/04 05:23:53;;;;;;;7.77;5.17;;;19.40;1.00;;;;;;5019515;28;21079;-70
2023/07/04 05:26:22;;;;;;;10.93;5.57;;;19.50;1.00;;;;;;5023793;28;20474;-71
2023/07/04 05:28:55;;;;;;;11.80;5.77;;;19.50;1.00;;;;;;5018339;28;20457;-70
2023/07/04 05:31:25;;;;;;;10.40;5.43;;;19.50;1.00;;;;;;5009757;28;20471;-70
2023/07/04 05:33:53;;;;;;;10.20;5.50;;;19.40;1.00;;;;;;5031196;28;20504;-73
2023/07/04 05:36:23;;;;;;;10.80;5.10;;;19.30;1.00;;;;;;5019879;28;20550;-71
2023/07/04 05:38:53;;;;;;;6.70;5.40;;;19.40;1.00;;;;;;5024504;28;20471;-71
2023/07/04 05:41:25;;;;;;;8.63;5.53;;;19.20;1.00;;;;;;5020521;28;21255;-71
2023/07/04 05:43:56;;;;;;;9.93;5.70;;;19.20;1.00;;;;;;5008574;28;21776;-70
2023/07/04 05:46:23;;;;;;;9.27;5.10;;;19.10;1.00;;;;;;5020235;28;20545;-72
2023/07/04 05:48:51;;;;;;;10.17;6.40;;;19.10;1.00;;;;;;5019541;28;21059;-70
2023/07/04 05:51:19;;;;;;;9.20;6.27;;;19.10;1.00;;;;;;5022150;28;20505;-72
2023/07/04 05:54:01;;;;;;;7.30;5.30;;;19.10;1.00;;;;;;5023537;28;20477;-70
2023/07/04 05:56:31;;;;;;;8.53;6.27;;;19.00;1.00;;;;;;5023101;28;20461;-73
2023/07/04 05:59:02;;;;;;;7.83;5.43;;;19.00;1.00;;;;;;5023314;28;20570;-71
2023/07/04 06:01:34;;;;;;;7.67;6.30;;;19.10;1.00;;;;;;5021384;28;21246;-72
2023/07/04 06:04:06;;;;;;;10.67;6.07;;;19.10;1.00;;;;;;5011910;28;21413;-71
2023/07/04 06:06:36;;;;;;;8.27;5.97;;;19.10;1.00;;;;;;5017385;28;20520;-70
2023/07/04 06:09:10;;;;;;;10.40;5.37;;;19.10;1.00;;;;;;5021008;28;20495;-71
2023/07/04 06:11:43;;;;;;;8.93;6.00;;;19.00;1.00;;;;;;5016891;28;21187;-70
2023/07/04 06:14:17;;;;;;;6.17;5.57;;;19.20;1.00;;;;;;5019275;28;21353;-72
2023/07/04 06:16:47;;;;;;;12.53;6.33;;;19.20;1.00;;;;;;5017606;28;20956;-71
2023/07/04 06:19:14;;;;;;;16.20;7.70;;;19.20;1.00;;;;;;5018542;28;20483;-71
2023/07/04 06:21:42;;;;;;;8.87;6.47;;;19.40;1.00;;;;;;5015556;28;21899;-69
2023/07/04 06:24:09;;;;;;;11.50;6.40;;;19.40;1.00;;;;;;5024293;28;20491;-68
2023/07/04 06:26:40;;;;;;;12.97;6.27;;;19.40;1.00;;;;;;5018425;28;20552;-74
2023/07/04 06:29:06;;;;;;;13.77;6.53;;;19.40;1.00;;;;;;5019308;28;20470;-70
2023/07/04 06:31:36;;;;;;;11.50;6.20;;;19.50;1.00;;;;;;5021212;28;21060;-69
2023/07/04 06:34:03;;;;;;;9.17;5.33;;;19.50;1.00;;;;;;5018985;28;20534;-70
2023/07/04 06:36:30;;;;;;;8.97;6.33;;;19.60;1.00;;;;;;5015908;28;21423;-66
2023/07/04 06:39:00;;;;;;;8.27;5.97;;;19.70;1.00;;;;;;5020246;28;20566;-70
2023/07/04 06:41:27;;;;;;;15.53;6.23;;;19.80;1.00;;;;;;5016535;28;20886;-68
2023/07/04 06:43:54;;;;;;;6.47;5.50;;;19.90;1.00;;;;;;5021036;28;20489;-68
2023/07/04 06:46:22;;;;;;;6.77;5.80;;;19.80;1.00;;;;;;5013893;28;21074;-70
2023/07/04 06:48:51;;;;;;;7.77;4.90;;;19.70;1.00;;;;;;5019817;28;21897;-68
2023/07/04 06:51:19;;;;;;;9.20;5.80;;;19.60;1.00;;;;;;5019022;28;20649;-68
2023/07/04 06:53:48;;;;;;;8.30;4.97;;;19.60;1.00;;;;;;5021365;28;20530;-69
2023/07/04 06:56:17;;;;;;;8.47;4.53;;;19.60;1.00;;;;;;5021188;28;20538;-72
2023/07/04 06:58:48;;;;;;;6.67;4.00;;;19.60;1.00;;;;;;5022469;28;20506;-68
2023/07/04 07:01:15;;;;;;;6.13;3.63;;;19.60;1.00;;;;;;5016963;28;20949;-69
2023/07/04 07:03:42;;;;;;;5.60;3.90;;;19.60;1.00;;;;;;5017746;28;20495;-71
2023/07/04 07:06:13;;;;;;;9.83;7.40;;;19.60;1.00;;;;;;5019720;28;20559;-73
2023/07/04 07:08:40;;;;;;;8.93;4.70;;;19.80;1.00;;;;;;5019449;28;20546;-70
2023/07/04 07:11:10;;;;;;;5.00;4.00;;;19.80;1.00;;;;;;5017795;28;20542;-72
2023/07/04 07:13:38;;;;;;;7.40;3.80;;;19.90;1.00;;;;;;5020912;28;20499;-70
2023/07/04 07:16:08;;;;;;;6.93;4.07;;;19.90;1.00;;;;;;5022193;28;20485;-70
2023/07/04 07:18:35;;;;;;;9.67;5.23;;;20.00;1.00;;;;;;5023429;28;20871;-74
2023/07/04 07:21:03;;;;;;;6.13;3.53;;;20.10;1.00;;;;;;5022146;28;21252;-72
2023/07/04 07:23:33;;;;;;;6.07;4.47;;;20.00;1.00;;;;;;5023404;28;21059;-72
2023/07/04 07:26:02;;;;;;;7.30;4.30;;;20.10;1.00;;;;;;5020587;28;20650;-70
2023/07/04 07:28:32;;;;;;;7.23;4.00;;;20.30;1.00;;;;;;5020394;28;20951;-70
2023/07/04 07:31:03;;;;;;;7.23;4.73;;;20.30;1.00;;;;;;5024631;28;20492;-71
2023/07/04 07:33:32;;;;;;;5.73;4.57;;;20.50;1.00;;;;;;5020358;28;20474;-71
2023/07/04 07:35:59;;;;;;;5.83;4.53;;;20.50;1.00;;;;;;5025013;28;20460;-70
2023/07/04 07:38:26;;;;;;;7.07;4.70;;;20.60;1.00;;;;;;5022162;28;20462;-70
2023/07/04 07:40:55;;;;;;;6.50;5.33;;;20.80;1.00;;;;;;5020396;28;20488;-71
2023/07/04 07:43:22;;;;;;;8.97;5.47;;;20.90;1.00;;;;;;5015079;28;20480;-70
2023/07/04 07:45:49;;;;;;;11.20;5.10;;;21.00;1.00;;;;;;5014491;28;20432;-72
2023/07/04 07:48:17;;;;;;;8.17;4.53;;;20.80;1.00;;;;;;5012795;28;20509;-71
2023/07/04 07:50:44;;;;;;;5.30;4.73;;;20.80;1.00;;;;;;5014639;28;20837;-68
2023/07/04 07:53:13;;;;;;;6.40;5.03;;;20.80;1.00;;;;;;5012389;28;20998;-69
2023/07/04 07:55:40;;;;;;;4.80;3.53;;;20.90;1.00;;;;;;5014184;28;20489;-71
2023/07/04 07:58:09;;;;;;;5.47;3.93;;;20.70;1.00;;;;;;5018963;28;20465;-71
2023/07/04 08:00:36;;;;;;;6.47;3.80;;;20.50;1.00;;;;;;5021632;28;20464;-70
2023/07/04 08:03:03;;;;;;;9.00;4.70;;;20.50;1.00;;;;;;5019374;28;20956;-70
2023/07/04 08:05:30;;;;;;;6.63;4.60;;;20.60;1.00;;;;;;5016121;28;20545;-70
2023/07/04 08:07:57;;;;;;;4.80;3.57;;;20.70;1.00;;;;;;5020419;28;20544;-70
2023/07/04 08:10:24;;;;;;;9.33;4.17;;;20.80;1.00;;;;;;5018974;28;20469;-70
2023/07/04 08:12:51;;;;;;;7.70;4.00;;;20.90;1.00;;;;;;5017294;28;20487;-71
2023/07/04 08:15:20;;;;;;;6.93;4.03;;;21.00;1.00;;;;;;5023178;28;20570;-70
2023/07/04 08:17:47;;;;;;;9.30;5.57;;;21.00;1.00;;;;;;5021203;28;20481;-69
2023/07/04 08:20:14;;;;;;;6.00;3.47;;;21.10;1.00;;;;;;5024638;28;20485;-71
2023/07/04 08:22:41;;;;;;;10.27;4.33;;;21.20;1.00;;;;;;5026864;28;20533;-70
2023/07/04 08:25:08;;;;;;;6.87;4.00;;;21.40;1.00;;;;;;5023672;28;22066;-71
2023/07/04 08:27:35;;;;;;;4.63;2.63;;;21.60;1.00;;;;;;5025253;28;20464;-71
2023/07/04 08:30:03;;;;;;;8.10;3.57;;;21.80;1.00;;;;;;5022689;28;21011;-71
2023/07/04 08:32:33;;;;;;;6.10;3.50;;;21.90;1.00;;;;;;5024049;28;20470;-71
2023/07/04 08:35:01;;;;;;;7.17;4.07;;;22.00;1.00;;;;;;5026286;28;20473;-70
2023/07/04 08:37:28;;;;;;;5.00;3.27;;;22.20;1.00;;;;;;5025654;28;20519;-71
2023/07/04 08:39:56;;;;;;;4.97;3.23;;;22.30;1.00;;;;;;5023359;28;20583;-71
2023/07/04 08:42:25;;;;;;;4.40;3.50;;;22.40;1.00;;;;;;5025054;28;20959;-70
2023/07/04 08:44:52;;;;;;;5.20;3.60;;;22.60;1.00;;;;;;5023198;28;20505;-70
2023/07/04 08:47:25;;;;;;;4.87;3.30;;;22.60;1.00;;;;;;5024577;28;20472;-70
2023/07/04 08:49:56;;;;;;;4.43;3.27;;;22.70;1.00;;;;;;5023936;28;20470;-73
2023/07/04 08:52:30;;;;;;;5.93;4.00;;;22.50;1.00;;;;;;5023633;28;20481;-71
2023/07/04 08:54:57;;;;;;;3.33;3.03;;;22.40;1.00;;;;;;5027310;28;20475;-71
2023/07/04 08:57:37;;;;;;;4.40;3.20;;;22.40;1.00;;;;;;5025649;28;20575;-71
2023/07/04 09:00:10;;;;;;;3.73;3.43;;;22.50;1.00;;;;;;5025076;28;20464;-71
2023/07/04 09:02:54;;;;;;;4.30;3.00;;;22.40;1.00;;;;;;5020444;28;20481;-70
2023/07/04 09:05:35;;;;;;;4.30;2.73;;;22.50;1.00;;;;;;5029324;28;20437;-70
2023/07/04 09:08:13;;;;;;;4.97;3.43;;;22.40;1.00;;;;;;5023952;28;20487;-71
2023/07/04 09:10:44;;;;;;;6.20;3.37;;;22.40;1.00;;;;;;5023978;28;20459;-70
2023/07/04 09:13:14;;;;;;;3.80;3.17;;;22.30;1.00;;;;;;5022500;28;20959;-71
2023/07/04 09:15:45;;;;;;;3.57;2.83;;;22.50;1.00;;;;;;5025468;28;20535;-71
2023/07/04 09:18:21;;;;;;;4.13;3.20;;;22.90;1.00;;;;;;5025946;28;20457;-72
2023/07/04 09:21:09;;;;;;;5.03;3.40;;;23.30;1.00;;;;;;5023845;28;20496;-70
2023/07/04 09:23:36;;;;;;;4.50;3.00;;;23.30;1.00;;;;;;5024127;28;20474;-70
2023/07/04 09:26:04;;;;;;;8.70;3.20;;;23.00;1.00;;;;;;5021836;28;20582;-71
2023/07/04 09:28:35;;;;;;;5.10;2.70;;;22.80;1.00;;;;;;5022359;28;20444;-72
2023/07/04 09:31:03;;;;;;;4.17;3.30;;;22.90;1.00;;;;;;5021956;28;20473;-71
2023/07/04 09:33:30;;;;;;;2.87;2.53;;;23.20;1.00;;;;;;5020479;28;20469;-71
2023/07/04 09:36:00;;;;;;;4.60;3.07;;;23.40;1.00;;;;;;5020848;28;20464;-71
2023/07/04 09:38:27;;;;;;;3.63;2.50;;;23.40;1.00;;;;;;5020676;28;25389;-72
2023/07/04 09:40:55;;;;;;;5.80;2.73;;;23.50;1.00;;;;;;5021784;28;20527;-71
2023/07/04 09:43:28;;;;;;;5.50;3.10;;;23.20;1.00;;;;;;5020150;28;20505;-72
2023/07/04 09:46:13;;;;;;;5.10;2.97;;;23.50;1.00;;;;;;5020298;28;20550;-72
2023/07/04 09:48:40;;;;;;;3.73;2.97;;;24.90;1.00;;;;;;5018885;28;20455;-72
2023/07/04 09:51:26;;;;;;;4.20;3.70;;;25.90;1.00;;;;;;5021276;28;20974;-72
2023/07/04 09:54:11;;;;;;;2.93;2.57;;;27.00;1.00;;;;;;5021959;28;20640;-71
2023/07/04 09:56:39;;;;;;;2.57;2.37;;;27.20;1.00;;;;;;5022852;28;20475;-71
2023/07/04 09:59:17;;;;;;;3.17;2.60;;;27.10;1.00;;;;;;5021815;28;20460;-72
2023/07/04 10:01:46;;;;;;;4.20;2.60;;;27.80;1.00;;;;;;5019622;28;20485;-71
2023/07/04 10:04:24;;;;;;;3.00;2.70;;;28.10;1.00;;;;;;5020473;28;20543;-72
2023/07/04 10:06:54;;;;;;;5.13;2.63;;;27.60;1.00;;;;;;5026383;28;20509;-72
2023/07/04 10:09:22;;;;;;;9.60;2.63;;;27.90;1.00;;;;;;5023456;28;20552;-72
2023/07/04 10:11:51;;;;;;;3.23;2.10;;;27.70;1.00;;;;;;5021914;28;20650;-71
2023/07/04 10:14:33;;;;;;;4.50;2.90;;;27.40;1.00;;;;;;5023955;28;20465;-71
2023/07/04 10:17:09;;;;;;;6.00;2.50;;;28.10;1.00;;;;;;5025545;28;20474;-71
2023/07/04 10:19:42;;;;;;;2.80;2.20;;;28.80;1.00;;;;;;5022484;28;20494;-71
2023/07/04 10:22:13;;;;;;;4.53;2.47;;;29.60;1.00;;;;;;5020836;28;20488;-72
2023/07/04 10:24:40;;;;;;;4.37;2.27;;;29.80;1.00;;;;;;5026705;28;20483;-72
2023/07/04 10:27:12;;;;;;;4.23;2.30;;;30.00;1.00;;;;;;5025774;28;20476;-74
2023/07/04 10:29:43;;;;;;;3.57;2.00;;;30.00;1.00;;;;;;5024599;28;20473;-72
2023/07/04 10:32:14;;;;;;;5.53;2.50;;;29.50;1.00;;;;;;5022654;28;20463;-71
2023/07/04 10:34:43;;;;;;;4.30;2.60;;;28.20;1.00;;;;;;5019400;28;20559;-73
2023/07/04 10:37:21;;;;;;;5.10;2.77;;;27.50;1.00;;;;;;5023239;28;20868;-72
2023/07/04 10:39:48;;;;;;;5.27;2.33;;;28.50;1.00;;;;;;5020847;28;20482;-71
2023/07/04 10:42:22;;;;;;;5.23;2.87;;;28.70;1.00;;;;;;5019942;28;20546;-72
2023/07/04 10:44:54;;;;;;;3.63;2.10;;;28.30;1.00;;;;;;5020532;28;20484;-72
2023/07/04 10:47:26;;;;;;;3.00;2.73;;;27.80;1.00;;;;;;5018743;28;20464;-72
2023/07/04 10:49:58;;;;;;;3.57;2.27;;;27.00;1.00;;;;;;5015635;28;20539;-72
2023/07/04 10:52:38;;;;;;;6.37;2.97;;;26.30;1.00;;;;;;5017141;28;21789;-69
2023/07/04 10:55:08;;;;;;;4.23;2.40;;;25.80;1.00;;;;;;5023033;28;22322;-70
2023/07/04 10:57:38;;;;;;;2.40;2.20;;;25.20;1.00;;;;;;5022769;28;20465;-71
2023/07/04 11:00:13;;;;;;;4.43;3.50;;;24.80;1.00;;;;;;5024604;28;20595;-72
2023/07/04 11:02:44;;;;;;;3.90;2.60;;;24.40;1.00;;;;;;5021586;28;20481;-72
2023/07/04 11:05:16;;;;;;;4.50;4.07;;;24.10;1.00;;;;;;5024632;28;20527;-71
2023/07/04 11:07:47;;;;;;;4.60;3.67;;;23.60;1.00;;;;;;5018562;28;20970;-71
2023/07/04 11:10:16;;;;;;;5.80;3.63;;;23.40;1.00;;;;;;5021733;28;20477;-70
2023/07/04 11:12:43;;;;;;;6.40;3.00;;;23.20;1.00;;;;;;5021867;28;20465;-72
2023/07/04 11:15:23;;;;;;;3.80;2.87;;;23.00;1.00;;;;;;5017394;28;20481;-74
2023/07/04 11:17:51;;;;;;;3.27;2.97;;;23.00;1.00;;;;;;5024603;28;20459;-72
2023/07/04 11:20:24;;;;;;;4.27;3.10;;;23.00;1.00;;;;;;5016167;28;20483;-72
2023/07/04 11:23:00;;;;;;;4.77;3.30;;;23.60;1.00;;;;;;5013641;28;20838;-73
2023/07/04 11:25:36;;;;;;;4.37;3.60;;;25.30;1.00;;;;;;5018411;28;20465;-71
2023/07/04 11:28:26;;;;;;;5.13;3.43;;;26.40;1.00;;;;;;5015748;28;20538;-75
2023/07/04 11:31:06;;;;;;;10.60;5.30;;;27.30;1.00;;;;;;5013112;28;20484;-72
2023/07/04 11:33:42;;;;;;;5.03;3.53;;;27.20;1.00;;;;;;5021419;28;20438;-73
2023/07/04 11:36:18;;;;;;;4.30;3.83;;;26.40;1.00;;;;;;5020120;28;20553;-72
2023/07/04 11:38:53;;;;;;;4.70;3.57;;;25.50;1.00;;;;;;5020604;28;20465;-73
2023/07/04 11:41:28;;;;;;;4.47;3.60;;;24.60;1.00;;;;;;5018733;28;20467;-72
2023/07/04 11:43:56;;;;;;;6.47;3.23;;;24.20;1.00;;;;;;5022516;28;20462;-72
2023/07/04 11:46:26;;;;;;;4.20;3.50;;;23.70;1.00;;;;;;5023394;28;20443;-72
2023/07/04 11:48:57;;;;;;;8.30;3.97;;;23.50;1.00;;;;;;5019655;28;20515;-72
2023/07/04 11:51:26;;;;;;;4.93;3.50;;;23.70;1.00;;;;;;5023217;28;20886;-74
2023/07/04 11:53:59;;;;;;;3.67;3.20;;;24.10;1.00;;;;;;5020864;28;20478;-71
2023/07/04 11:56:38;;;;;;;5.37;3.73;;;24.20;1.00;;;;;;5014330;28;20966;-71
2023/07/04 11:59:41;;;;;;;6.43;3.60;;;24.40;1.00;;;;;;5026101;28;20543;-72
2023/07/04 12:02:26;;;;;;;5.30;3.23;;;24.50;1.00;;;;;;5016114;28;20549;-72
2023/07/04 12:04:54;;;;;;;8.37;3.87;;;25.00;1.00;;;;;;5017555;28;20595;-73
2023/07/04 12:07:38;;;;;;;8.77;3.90;;;25.70;1.00;;;;;;5026126;28;20518;-73
2023/07/04 12:10:13;;;;;;;6.13;3.40;;;25.90;1.00;;;;;;5024735;28;20450;-73
2023/07/04 12:12:41;;;;;;;5.07;4.00;;;26.70;1.00;;;;;;5027467;28;20534;-72
2023/07/04 12:15:10;;;;;;;8.10;7.40;;;27.00;1.00;;;;;;5023664;28;20505;-75
2023/07/04 12:17:39;;;;;;;4.17;3.40;;;28.20;1.00;;;;;;5026435;28;20502;-72
2023/07/04 12:20:11;;;;;;;6.97;3.87;;;29.80;1.00;;;;;;5026481;28;20935;-70
2023/07/04 12:22:44;;;;;;;4.20;3.80;;;31.40;1.00;;;;;;5022068;28;20476;-70
2023/07/04 12:25:21;;;;;;;5.27;4.23;;;32.70;1.00;;;;;;5014208;28;20489;-72
2023/07/04 12:27:49;;;;;;;8.90;4.40;;;33.00;1.00;;;;;;5016419;28;20475;-72
2023/07/04 12:30:16;;;;;;;4.60;3.30;;;32.50;1.00;;;;;;5016477;28;20536;-73
2023/07/04 12:32:44;;;;;;;4.87;3.50;;;31.40;1.00;;;;;;5021075;28;20465;-72
2023/07/04 12:35:18;;;;;;;5.70;4.07;;;31.10;1.00;;;;;;5022125;28;20413;-72
2023/07/04 12:37:48;;;;;;;5.90;3.40;;;30.00;1.00;;;;;;5027259;28;20574;-72
2023/07/04 12:40:20;;;;;;;4.00;3.60;;;29.70;1.00;;;;;;5025328;28;20462;-71
2023/07/04 12:42:49;;;;;;;4.07;3.67;;;30.50;1.00;;;;;;5023853;28;20465;-72
2023/07/04 12:45:20;;;;;;;5.30;3.93;;;31.30;1.00;;;;;;5027855;28;20468;-71
2023/07/04 12:47:48;;;;;;;5.40;4.10;;;32.50;1.00;;;;;;5020320;28;20481;-70
2023/07/04 12:50:16;;;;;;;3.80;3.40;;;33.70;1.00;;;;;;5023172;28;20461;-72
2023/07/04 12:52:46;;;;;;;5.87;3.63;;;34.70;1.00;;;;;;5021911;28;20456;-71
2023/07/04 12:55:23;;;;;;;4.30;3.43;;;35.00;1.00;;;;;;5018417;28;20473;-72
2023/07/04 12:57:51;;;;;;;6.23;3.67;;;34.90;1.00;;;;;;5021801;28;20482;-71
2023/07/04 13:00:26;;;;;;;3.57;2.90;;;34.80;1.00;;;;;;5024970;28;20464;-75
2023/07/04 13:02:58;;;;;;;6.57;3.73;;;35.30;1.00;;;;;;5025175;28;20470;-72
2023/07/04 13:05:29;;;;;;;4.90;3.27;;;35.10;1.00;;;;;;5020047;28;21023;-73
2023/07/04 13:07:57;;;;;;;6.13;3.37;;;35.00;1.00;;;;;;5021413;28;21107;-72
2023/07/04 13:10:30;;;;;;;5.60;3.50;;;34.70;1.00;;;;;;5022994;28;20457;-72